aviador You're here:

LFSB Decoded Metar

MULHOUSE in FRANCE
Report Time2017-08-20 19:00:00
UTC Time2017-08-20 19:11:33
Flight Rules vfr VFR
Wind290° at 05 kt
W.Decomp.*RWY 26: 4.4 kt HW 2.4 kt RCW
RWY 33: 3.8 kt HW 3.3 kt LCW
W.Rank290° ranks 14
Current wind is below 290° avg. (6.0)
Visibility9999 m
Phenomena:N/A
Clouds:N/A
Expected CloudBase > 2,800 ft AGL from Temp-Dew spread
CeilingNone
Temp17°C (ISA +4)
Dew Point10°C (64% RH)
AAT15.3°C
QNH1024 hPa
Density Alt1,132 ft
Elevation889 ft
Report Wrong Elevation
Raw Report
LFSB 201900Z 29005KT CAVOK 17/10 Q1024 NOSIG=

Extra information for LFSB:More info

Metar Taf Metar & Taf Last 4 Metars F.Rules Stats Wind Profile Meteogram Temp Stats Airport Information Weather charts Add Link Nearby VenuesMetar ALERT Operation Metar Decoded Social comments